Ital Oriente — A8LN2 — position and weather

sailwx.info

Track history (hours):
 
Tides and Currents Weather Stations Pressure Air Temp Water Temp Dewpoint Dewpoint Depression Visibility Wind Speed Wind Dir Waves Ship Positions

Ital Oriente

Last reported at 2016-Sep-27 06:00 UTC. Time now 2016-Sep-27 08:45 UTC.
Position N 40°30' E 022°42'.

Length 222 m; draft 7.9 m.

Type: Cargo ship. MMSI: 636091278.

Wind from 280 at 9 knots

Waves 0.5 meters (2 feet), 1 second period

Barometer 1022.5 mb
Air temperature 18.0 ° C
Visibility: greater than 5.4 NM
Dewpoint 16.4 ° C

Date/timePositionNaut miles runAvg speedWind from/ knotsBaromVisibWave heightAir tempDewpointWater temp
2016-Sep-27 06:00N 40°30' E 022°42'12 2.3 280 / 91022.5 5.4 0.518.016.4
2016-Sep-27 00:33N 40°38' E 022°54'0 0.0
2016-Sep-26 20:24N 40°38' E 022°54'0 0.0
2016-Sep-26 19:27N 40°38' E 022°54'0 0.0
2016-Sep-26 15:30N 40°38' E 022°54'0 0.0
2016-Sep-26 13:33N 40°38' E 022°54'0 0.0
2016-Sep-26 11:33N 40°38' E 022°54'0 0.0
2016-Sep-26 08:33N 40°38' E 022°54'2 0.4
2016-Sep-26 02:33N 40°36' E 022°55'0 0.0
2016-Sep-26 01:25N 40°36' E 022°55'0 0.0
2016-Sep-26 00:25N 40°36' E 022°55'0 0.0
2016-Sep-25 21:31N 40°36' E 022°55'0 0.0
2016-Sep-25 17:19N 40°36' E 022°55'0 0.1
2016-Sep-25 16:31N 40°36' E 022°55'0 0.1
2016-Sep-25 15:31N 40°36' E 022°56'0 0.0
2016-Sep-25 14:22N 40°36' E 022°56'0 0.0
2016-Sep-25 12:25N 40°36' E 022°56'0 0.1
2016-Sep-25 11:25N 40°36' E 022°56'0 0.0
2016-Sep-25 10:28N 40°36' E 022°56'0 0.0
2016-Sep-25 09:28N 40°36' E 022°56'0 0.0
2016-Sep-25 07:31N 40°36' E 022°56'0 0.0
2016-Sep-25 04:34N 40°36' E 022°56'0 0.0
2016-Sep-25 00:34N 40°36' E 022°55'0 0.0
2016-Sep-24 22:34N 40°36' E 022°55'0 0.0
2016-Sep-24 21:25N 40°36' E 022°55'0 0.0
2016-Sep-24 19:28N 40°36' E 022°55'0 0.1
2016-Sep-24 18:28N 40°36' E 022°55'9 9.8
2016-Sep-24 17:33N 40°30' E 022°47'1515.1
2016-Sep-24 16:33N 40°16' E 022°56'6215.5
2016-Sep-24 12:33N 39°39' E 024°01'  
2016-Sep-21 06:00N 39°30' E 025°36'13210.6 040 / 211010.0 5.4 1.524.023.3
2016-Sep-20 17:33N 37°57' E 023°36'0 0.0
2016-Sep-20 14:33N 37°57' E 023°36'0 0.0
2016-Sep-20 13:33N 37°57' E 023°36'0 0.0
2016-Sep-20 10:33N 37°57' E 023°36'0 0.0
2016-Sep-20 08:33N 37°57' E 023°36'0 0.0
2016-Sep-20 07:33N 37°57' E 023°36'0 0.0
2016-Sep-20 06:33N 37°57' E 023°36'0 0.0
2016-Sep-20 02:33N 37°57' E 023°36'0 0.0
2016-Sep-19 23:33N 37°57' E 023°36'0 0.0
2016-Sep-19 19:33N 37°57' E 023°36'0 0.0
2016-Sep-19 18:33N 37°57' E 023°36'0 0.0
2016-Sep-19 16:33N 37°57' E 023°36'0 0.0
2016-Sep-19 14:33N 37°57' E 023°36'0 0.0
2016-Sep-19 13:33N 37°57' E 023°36'0 0.0
2016-Sep-19 12:33N 37°57' E 023°36'1 1.0
2016-Sep-19 11:33N 37°56' E 023°36'13 6.5
2016-Sep-19 09:33N 37°44' E 023°43'2610.9
2016-Sep-19 07:07N 37°42' E 024°16'813.6
2016-Sep-19 06:33N 37°48' E 024°23'17814.2
2016-Sep-18 18:00N 40°30' E 022°48'9 3.7 140 / 91014.0 5.4 0.528.026.7
2016-Sep-18 15:27N 40°38' E 022°54'0 0.0
2016-Sep-18 14:27N 40°38' E 022°54'0 0.0
2016-Sep-18 10:33N 40°38' E 022°54'0 0.0
2016-Sep-18 09:33N 40°38' E 022°54'0 0.0
2016-Sep-18 02:27N 40°38' E 022°54'0 0.0
2016-Sep-18 01:27N 40°38' E 022°54'0 0.0
2016-Sep-18 00:27N 40°38' E 022°54'0 0.0
2016-Sep-17 22:30N 40°38' E 022°54'0 0.0
2016-Sep-17 21:30N 40°38' E 022°54'0 0.0
2016-Sep-17 20:33N 40°38' E 022°54'0 0.0
2016-Sep-17 19:15N 40°38' E 022°54'0 0.0
2016-Sep-17 13:24N 40°38' E 022°54'0 0.0
2016-Sep-17 12:27N 40°38' E 022°54'0 0.0
2016-Sep-17 10:27N 40°38' E 022°54'0 0.0
2016-Sep-17 09:30N 40°38' E 022°54'0 0.0
2016-Sep-17 08:30N 40°38' E 022°54'0 0.0
2016-Sep-17 07:30N 40°38' E 022°54'  
Track history (hours):
 
Tides and Currents Weather Stations Pressure Air Temp Water Temp Dewpoint Dewpoint Depression Visibility Wind Speed Wind Dir Waves Ship Positions

Ital Oriente

Last reported at 2016-Sep-27 06:00 UTC. Time now 2016-Sep-27 08:45 UTC.
Position N 40°30' E 022°42'.

Length 222 m; draft 7.9 m.

Type: Cargo ship. MMSI: 636091278.

Wind from 280 at 9 knots

Waves 0.5 meters (2 feet), 1 second period

Barometer 1022.5 mb
Air temperature 18.0 ° C
Visibility: greater than 5.4 NM
Dewpoint 16.4 ° C

Date/timePositionNaut miles runAvg speedWind from/ knotsBaromVisibWave heightAir tempDewpointWater temp
2016-Sep-27 06:00N 40°30' E 022°42'12 2.3 280 / 91022.5 5.4 0.518.016.4
2016-Sep-27 00:33N 40°38' E 022°54'0 0.0
2016-Sep-26 20:24N 40°38' E 022°54'0 0.0
2016-Sep-26 19:27N 40°38' E 022°54'0 0.0
2016-Sep-26 15:30N 40°38' E 022°54'0 0.0
2016-Sep-26 13:33N 40°38' E 022°54'0 0.0
2016-Sep-26 11:33N 40°38' E 022°54'0 0.0
2016-Sep-26 08:33N 40°38' E 022°54'2 0.4
2016-Sep-26 02:33N 40°36' E 022°55'0 0.0
2016-Sep-26 01:25N 40°36' E 022°55'0 0.0
2016-Sep-26 00:25N 40°36' E 022°55'0 0.0
2016-Sep-25 21:31N 40°36' E 022°55'0 0.0
2016-Sep-25 17:19N 40°36' E 022°55'0 0.1
2016-Sep-25 16:31N 40°36' E 022°55'0 0.1
2016-Sep-25 15:31N 40°36' E 022°56'0 0.0
2016-Sep-25 14:22N 40°36' E 022°56'0 0.0
2016-Sep-25 12:25N 40°36' E 022°56'0 0.1
2016-Sep-25 11:25N 40°36' E 022°56'0 0.0
2016-Sep-25 10:28N 40°36' E 022°56'0 0.0
2016-Sep-25 09:28N 40°36' E 022°56'0 0.0
2016-Sep-25 07:31N 40°36' E 022°56'0 0.0
2016-Sep-25 04:34N 40°36' E 022°56'0 0.0
2016-Sep-25 00:34N 40°36' E 022°55'0 0.0
2016-Sep-24 22:34N 40°36' E 022°55'0 0.0
2016-Sep-24 21:25N 40°36' E 022°55'0 0.0
2016-Sep-24 19:28N 40°36' E 022°55'0 0.1
2016-Sep-24 18:28N 40°36' E 022°55'9 9.8
2016-Sep-24 17:33N 40°30' E 022°47'1515.1
2016-Sep-24 16:33N 40°16' E 022°56'6215.5
2016-Sep-24 12:33N 39°39' E 024°01'  
2016-Sep-21 06:00N 39°30' E 025°36'13210.6 040 / 211010.0 5.4 1.524.023.3
2016-Sep-20 17:33N 37°57' E 023°36'0 0.0
2016-Sep-20 14:33N 37°57' E 023°36'0 0.0
2016-Sep-20 13:33N 37°57' E 023°36'0 0.0
2016-Sep-20 10:33N 37°57' E 023°36'0 0.0
2016-Sep-20 08:33N 37°57' E 023°36'0 0.0
2016-Sep-20 07:33N 37°57' E 023°36'0 0.0
2016-Sep-20 06:33N 37°57' E 023°36'0 0.0
2016-Sep-20 02:33N 37°57' E 023°36'0 0.0
2016-Sep-19 23:33N 37°57' E 023°36'0 0.0
2016-Sep-19 19:33N 37°57' E 023°36'0 0.0
2016-Sep-19 18:33N 37°57' E 023°36'0 0.0
2016-Sep-19 16:33N 37°57' E 023°36'0 0.0
2016-Sep-19 14:33N 37°57' E 023°36'0 0.0
2016-Sep-19 13:33N 37°57' E 023°36'0 0.0
2016-Sep-19 12:33N 37°57' E 023°36'1 1.0
2016-Sep-19 11:33N 37°56' E 023°36'13 6.5
2016-Sep-19 09:33N 37°44' E 023°43'2610.9
2016-Sep-19 07:07N 37°42' E 024°16'813.6
2016-Sep-19 06:33N 37°48' E 024°23'17814.2
2016-Sep-18 18:00N 40°30' E 022°48'9 3.7 140 / 91014.0 5.4 0.528.026.7
2016-Sep-18 15:27N 40°38' E 022°54'0 0.0
2016-Sep-18 14:27N 40°38' E 022°54'0 0.0
2016-Sep-18 10:33N 40°38' E 022°54'0 0.0
2016-Sep-18 09:33N 40°38' E 022°54'0 0.0
2016-Sep-18 02:27N 40°38' E 022°54'0 0.0
2016-Sep-18 01:27N 40°38' E 022°54'0 0.0
2016-Sep-18 00:27N 40°38' E 022°54'0 0.0
2016-Sep-17 22:30N 40°38' E 022°54'0 0.0
2016-Sep-17 21:30N 40°38' E 022°54'0 0.0
2016-Sep-17 20:33N 40°38' E 022°54'0 0.0
2016-Sep-17 19:15N 40°38' E 022°54'0 0.0
2016-Sep-17 13:24N 40°38' E 022°54'0 0.0
2016-Sep-17 12:27N 40°38' E 022°54'0 0.0
2016-Sep-17 10:27N 40°38' E 022°54'0 0.0
2016-Sep-17 09:30N 40°38' E 022°54'0 0.0
2016-Sep-17 08:30N 40°38' E 022°54'0 0.0
2016-Sep-17 07:30N 40°38' E 022°54'  

Dump ship's entire track history